Aviation Digital Data Service (ADDS)

Output produced by METARs form (2140 UTC 15 December 2017)
found at http://www.aviationweather.gov/adds/metars/
 
LWOH 151900Z 15014KT 9999 BKN060 11/06 Q1009
TAF LWOH 152030Z 1521/1621 14015KT 9999 BKN050 
     BECMG 1607/1609 RA BKN035 OVC050
       
LWSK 152130Z 14017KT 9999 FEW040 BKN075 12/05 Q1006 NOSIG
TAF LWSK 152030Z 1521/1621 15012KT 9999 BKN080 
     TEMPO 1521/1604 18020KT 
     BECMG 1610/1612 RA BKN035 OVC050 
     BECMG 1615/1617 34012KT
       
LWOH 151900Z 15014KT 9999 BKN060 11/06 Q1009
TAF LWOH 152030Z 1521/1621 14015KT 9999 BKN050 
     BECMG 1607/1609 RA BKN035 OVC050
       
LWSK 152130Z 14017KT 9999 FEW040 BKN075 12/05 Q1006 NOSIG
TAF LWSK 152030Z 1521/1621 15012KT 9999 BKN080 
     TEMPO 1521/1604 18020KT 
     BECMG 1610/1612 RA BKN035 OVC050 
     BECMG 1615/1617 34012KT